Time;durP1;ratioP1;P1;durP2;ratioP2;P2;SDS_P1;SDS_P2;PMS_P1;PMS_P2;Temp;Humidity;BMP_temperature;BMP_pressure;BME280_temperature;BME280_humidity;BME280_pressure;Samples;Min_cycle;Max_cycle;Signal;HPM_P1;HPM_P2
2022/06/19 00:01:43;;;;;;;;;;;;;;;29.03;39.35;93961.41;5052196;28;9071;-61
2022/06/19 00:04:10;;;;;;;;;;;;;;;29.04;39.01;93954.56;5071984;28;9125;-61
2022/06/19 00:06:44;;;;;;;;;;;;;;;29.04;38.67;93954.56;5054576;28;7193;-61
2022/06/19 00:09:14;;;;;;;;;;;;;;;29.05;38.51;93956.06;5072368;28;7208;-61
2022/06/19 00:11:43;;;;;;;;;;;;;;;29.06;38.62;93956.78;5057762;28;8922;-60
2022/06/19 00:14:15;;;;;;;;;;;;;;;29.03;38.56;93947.56;5049974;28;10094;-61
2022/06/19 00:17:01;;;;;;;;;;;;;;;29.03;38.45;93952.34;5045304;28;9350;-61
2022/06/19 00:19:27;;;;;;;;;;;;;;;29.00;38.50;93954.16;5050330;28;7259;-61
2022/06/19 00:21:59;;;;;;;;;;;;;;;29.02;38.88;93948.06;5064155;28;8686;-60
2022/06/19 00:24:34;;;;;;;;;;;;;;;29.00;38.15;93942.34;5047524;28;8833;-61
2022/06/19 00:27:19;;;;;;;;;;;;;;;28.98;38.62;93942.91;5055282;28;9079;-61
2022/06/19 00:30:15;;;;;;;;;;;;;;;28.97;38.53;93944.16;5067022;28;7385;-60
2022/06/19 00:32:42;;;;;;;;;;;;;;;28.99;37.74;93936.06;4960099;28;7140;-61
2022/06/19 00:35:11;;;;;;;;;;;;;;;28.99;38.24;93947.13;4971281;28;9276;-60
2022/06/19 00:37:39;;;;;;;;;;;;;;;28.97;38.09;93937.91;4953340;28;9294;-60
2022/06/19 00:40:13;;;;;;;;;;;;;;;28.96;37.62;93941.94;4954482;28;7300;-61
2022/06/19 00:42:40;;;;;;;;;;;;;;;28.93;38.13;93935.47;4966405;28;7279;-61
2022/06/19 00:45:06;;;;;;;;;;;;;;;28.90;38.43;93936.56;4960668;28;7127;-61
2022/06/19 00:47:38;;;;;;;;;;;;;;;28.91;38.30;93937.28;4924270;28;8914;-60
2022/06/19 00:50:32;;;;;;;;;;;;;;;28.91;37.83;93935.28;4957556;28;7579;-60
2022/06/19 00:53:01;;;;;;;;;;;;;;;28.87;38.20;93923.06;4938459;28;7238;-60
2022/06/19 00:55:41;;;;;;;;;;;;;;;28.88;38.18;93927.31;4964627;28;9479;-61
2022/06/19 00:58:38;;;;;;;;;;;;;;;28.87;37.89;93929.34;4954285;28;9169;-61
2022/06/19 01:01:18;;;;;;;;;;;;;;;28.88;37.99;93927.31;4948646;28;8757;-61
2022/06/19 01:03:55;;;;;;;;;;;;;;;28.88;38.15;93925.28;4933989;28;7453;-60
2022/06/19 01:06:22;;;;;;;;;;;;;;;28.88;37.65;93916.97;4951160;28;7069;-61
2022/06/19 01:08:49;;;;;;;;;;;;;;;28.84;38.05;93905.50;4956702;28;6975;-60
2022/06/19 01:11:18;;;;;;;;;;;;;;;28.84;37.58;93911.03;4986421;28;7590;-61
2022/06/19 01:13:44;;;;;;;;;;;;;;;28.85;37.78;93909.78;4989339;28;7292;-61
2022/06/19 01:16:13;;;;;;;;;;;;;;;28.86;37.74;93910.53;4988546;28;6989;-61
2022/06/19 01:18:40;;;;;;;;;;;;;;;28.86;37.60;93911.22;4989321;28;7010;-61
2022/06/19 01:21:47;;;;;;;;;;;;;;;28.85;37.61;93904.22;4987984;28;7233;-60
2022/06/19 01:24:46;;;;;;;;;;;;;;;28.86;37.88;93911.22;4986911;28;7063;-60
2022/06/19 01:30:01;;;;;;;;;;;;;;;28.81;37.35;93906.63;5026127;28;9174;-61
2022/06/19 01:32:27;;;;;;;;;;;;;;;28.82;37.21;93913.63;5046302;28;7231;-61
2022/06/19 01:34:57;;;;;;;;;;;;;;;28.81;37.29;93914.16;5032814;28;9334;-60
2022/06/19 01:37:28;;;;;;;;;;;;;;;28.81;37.42;93914.16;5050665;28;8486;-60
2022/06/19 01:40:01;;;;;;;;;;;;;;;28.81;37.33;93905.88;5051099;28;8494;-61
2022/06/19 01:42:29;;;;;;;;;;;;;;;28.80;37.22;93913.41;5051533;28;9371;-60
2022/06/19 01:44:57;;;;;;;;;;;;;;;28.79;37.10;93906.41;5048397;28;7139;-60
2022/06/19 01:47:25;;;;;;;;;;;;;;;28.78;37.21;93913.22;5044268;28;9104;-60
2022/06/19 01:49:54;;;;;;;;;;;;;;;28.78;37.06;93901.41;5069929;28;8872;-61
2022/06/19 01:52:28;;;;;;;;;;;;;;;28.76;37.47;93909.50;5034658;28;9135;-61
2022/06/19 01:55:18;;;;;;;;;;;;;;;28.76;37.33;93913.03;5050084;28;9061;-60
2022/06/19 01:57:55;;;;;;;;;;;;;;;28.74;37.14;93901.75;5063010;28;7046;-61
2022/06/19 02:00:28;;;;;;;;;;;;;;;28.76;37.27;93903.97;5049990;28;7244;-61
2022/06/19 02:03:11;;;;;;;;;;;;;;;28.75;36.97;93902.50;5049840;28;7159;-61
2022/06/19 02:05:40;;;;;;;;;;;;;;;28.76;36.99;93906.75;5052399;28;9125;-60
2022/06/19 02:08:10;;;;;;;;;;;;;;;28.77;36.77;93914.53;5041543;28;6928;-61
2022/06/19 02:10:40;;;;;;;;;;;;;;;28.75;36.82;93910.81;5055024;28;9045;-60
2022/06/19 02:13:09;;;;;;;;;;;;;;;28.76;36.66;93915.78;5054023;28;9280;-60
2022/06/19 02:15:36;;;;;;;;;;;;;;;28.75;37.17;93916.34;5053075;28;7158;-61
2022/06/19 02:18:09;;;;;;;;;;;;;;;28.73;37.20;93913.38;5051574;28;7520;-61
2022/06/19 02:20:37;;;;;;;;;;;;;;;28.74;36.55;93918.38;5055153;28;7050;-60
2022/06/19 02:23:07;;;;;;;;;;;;;;;28.72;36.92;93911.88;5061933;28;9416;-60
2022/06/19 02:25:38;;;;;;;;;;;;;;;28.69;36.70;93916.47;5050178;28;7069;-61
2022/06/19 02:28:05;;;;;;;;;;;;;;;28.72;36.83;93922.97;5059461;28;7164;-60
2022/06/19 02:30:34;;;;;;;;;;;;;;;28.72;37.00;93920.94;5048690;28;6977;-60
2022/06/19 02:33:03;;;;;;;;;;;;;;;28.72;36.78;93920.94;5063844;28;7223;-60
2022/06/19 02:35:29;;;;;;;;;;;;;;;28.71;36.62;93921.50;5068353;28;7076;-61
2022/06/19 02:37:56;;;;;;;;;;;;;;;28.70;36.01;93920.00;5050799;28;7330;-61
2022/06/19 02:40:34;;;;;;;;;;;;;;;28.69;37.07;93937.88;5048141;28;7299;-60
2022/06/19 02:43:00;;;;;;;;;;;;;;;28.67;36.74;93934.91;5069059;28;7105;-61
2022/06/19 02:45:33;;;;;;;;;;;;;;;28.64;36.66;93925.69;5050771;28;7218;-60
2022/06/19 02:48:00;;;;;;;;;;;;;;;28.66;36.86;93931.41;5048891;28;8841;-61
2022/06/19 02:50:31;;;;;;;;;;;;;;;28.66;36.96;93936.94;5050121;28;9524;-60
2022/06/19 02:53:05;;;;;;;;;;;;;;;28.65;36.72;93931.94;5053150;28;7190;-60
2022/06/19 02:55:43;;;;;;;;;;;;;;;28.64;36.89;93928.44;5068323;28;9407;-61
2022/06/19 02:58:39;;;;;;;;;;;;;;;28.65;37.00;93927.16;5054561;28;9450;-60
2022/06/19 03:01:07;;;;;;;;;;;;;;;28.64;36.81;93933.25;4954974;28;7355;-60
2022/06/19 03:03:48;;;;;;;;;;;;;;;28.64;37.13;93928.44;4951993;28;9127;-61
2022/06/19 03:06:13;;;;;;;;;;;;;;;28.63;36.84;93924.19;4969471;28;8958;-60
2022/06/19 03:08:41;;;;;;;;;;;;;;;28.65;36.94;93929.91;4970245;28;9227;-61
2022/06/19 03:11:19;;;;;;;;;;;;;;;28.65;36.89;93929.16;4955363;28;7411;-60
2022/06/19 03:13:46;;;;;;;;;;;;;;;28.64;36.66;93933.97;4954643;28;9459;-60
2022/06/19 03:16:24;;;;;;;;;;;;;;;28.67;36.90;93927.34;4967292;28;9375;-60
2022/06/19 03:18:53;;;;;;;;;;;;;;;28.67;36.67;93935.66;4955265;28;7110;-61
2022/06/19 03:21:21;;;;;;;;;;;;;;;28.65;36.67;93929.91;4956408;28;7490;-61
2022/06/19 03:23:57;;;;;;;;;;;;;;;28.64;36.79;93933.97;4971741;28;8257;-60
2022/06/19 03:26:35;;;;;;;;;;;;;;;28.64;36.81;93933.97;4971608;28;7236;-60
2022/06/19 03:29:02;;;;;;;;;;;;;;;28.65;36.81;93934.69;4955438;28;6856;-60
2022/06/19 03:31:29;;;;;;;;;;;;;;;28.64;36.89;93933.25;4954561;28;8761;-61
2022/06/19 03:33:56;;;;;;;;;;;;;;;28.64;36.91;93933.97;4968757;28;7646;-61
2022/06/19 03:36:22;;;;;;;;;;;;;;;28.65;36.88;93937.47;4957926;28;7529;-60
2022/06/19 03:38:57;;;;;;;;;;;;;;;28.65;36.73;93935.44;5054615;28;9237;-60
2022/06/19 03:41:54;;;;;;;;;;;;;;;28.66;37.04;93936.19;5057479;28;9335;-60
2022/06/19 03:44:21;;;;;;;;;;;;;;;28.67;36.97;93937.66;4960855;28;9037;-60
2022/06/19 03:46:47;;;;;;;;;;;;;;;28.65;37.08;93932.69;4941066;28;7288;-60
2022/06/19 03:49:13;;;;;;;;;;;;;;;28.65;36.80;93937.47;4941181;28;7337;-61
2022/06/19 03:51:39;;;;;;;;;;;;;;;28.62;36.84;93936.56;4969587;28;7231;-61
2022/06/19 03:54:08;;;;;;;;;;;;;;;28.63;37.16;93940.03;4949680;28;6968;-60
2022/06/19 03:56:37;;;;;;;;;;;;;;;28.62;37.45;93931.03;4951270;28;9182;-61
2022/06/19 03:59:04;;;;;;;;;;;;;;;28.61;37.15;93929.53;4983535;28;9160;-61
2022/06/19 04:01:36;;;;;;;;;;;;;;;28.63;37.14;93926.94;4965140;28;6975;-60
2022/06/19 04:04:06;;;;;;;;;;;;;;;28.62;37.76;93922.72;4966623;28;9142;-60
2022/06/19 04:06:36;;;;;;;;;;;;;;;28.63;37.25;93921.41;4953626;28;7359;-61
2022/06/19 04:09:05;;;;;;;;;;;;;;;28.62;37.37;93922.72;4966517;28;7053;-61
2022/06/19 04:11:41;;;;;;;;;;;;;;;28.63;37.68;93932.50;4948003;28;7397;-61
2022/06/19 04:14:15;;;;;;;;;;;;;;;28.65;37.25;93929.16;4954420;28;6992;-60
2022/06/19 04:16:50;;;;;;;;;;;;;;;28.64;37.48;93928.44;4967158;28;7419;-60
2022/06/19 04:19:41;;;;;;;;;;;;;;;28.65;37.56;93923.63;4936526;28;8939;-60
2022/06/19 04:22:13;;;;;;;;;;;;;;;28.64;37.64;93922.91;5051209;28;7238;-60
2022/06/19 04:24:42;;;;;;;;;;;;;;;28.64;38.17;93924.94;5049703;28;8829;-60
2022/06/19 04:27:09;;;;;;;;;;;;;;;28.64;37.52;93922.16;5064055;28;7458;-60
2022/06/19 04:29:38;;;;;;;;;;;;;;;28.63;37.50;93926.94;5053958;28;9167;-60
2022/06/19 04:32:06;;;;;;;;;;;;;;;28.63;38.04;93926.94;5066740;28;7085;-60
2022/06/19 04:34:34;;;;;;;;;;;;;;;28.62;37.57;93919.19;5051522;28;7156;-60
2022/06/19 04:37:06;;;;;;;;;;;;;;;28.64;37.63;93927.69;5053319;28;7448;-60
2022/06/19 04:39:33;;;;;;;;;;;;;;;28.61;37.49;93921.22;5050002;28;9147;-61
2022/06/19 04:42:00;;;;;;;;;;;;;;;28.62;37.41;93919.94;5066379;28;7184;-61
2022/06/19 04:44:28;;;;;;;;;;;;;;;28.62;37.57;93927.50;5065737;28;8795;-61
2022/06/19 04:46:59;;;;;;;;;;;;;;;28.59;37.96;93926.56;5046502;28;7283;-61
2022/06/19 04:49:27;;;;;;;;;;;;;;;28.58;37.79;93927.81;5048903;28;7044;-61
2022/06/19 04:51:55;;;;;;;;;;;;;;;28.61;37.76;93924.00;5061931;28;7037;-61
2022/06/19 04:54:21;;;;;;;;;;;;;;;28.62;37.99;93936.56;5043508;28;7306;-61
2022/06/19 04:56:58;;;;;;;;;;;;;;;28.61;38.25;93932.28;5072860;28;9543;-61
2022/06/19 04:59:25;;;;;;;;;;;;;;;28.63;37.58;93928.97;5074436;28;7640;-60
2022/06/19 05:01:51;;;;;;;;;;;;;;;28.64;37.86;93938.78;5074295;28;7032;-60
2022/06/19 05:04:19;;;;;;;;;;;;;;;28.62;38.03;93927.50;5072407;28;9186;-60
2022/06/19 05:06:45;;;;;;;;;;;;;;;28.61;38.94;93937.81;5055317;28;7109;-61
2022/06/19 05:09:11;;;;;;;;;;;;;;;28.59;38.74;93937.63;5072713;28;9432;-61
2022/06/19 05:11:40;;;;;;;;;;;;;;;28.61;39.37;93942.59;5051966;28;7046;-61
2022/06/19 05:14:06;;;;;;;;;;;;;;;28.61;39.20;93939.84;5040724;28;7073;-61
2022/06/19 05:16:32;;;;;;;;;;;;;;;28.62;39.13;93942.09;5054299;28;7239;-61
2022/06/19 05:19:04;;;;;;;;;;;;;;;28.63;39.38;93935.25;5075091;28;9229;-61
2022/06/19 05:21:39;;;;;;;;;;;;;;;28.65;39.85;93932.69;5062127;28;8734;-61
2022/06/19 05:24:21;;;;;;;;;;;;;;;28.63;40.42;93932.50;5023616;28;7271;-60
2022/06/19 05:26:50;;;;;;;;;;;;;;;28.63;39.46;93932.50;5054975;28;9283;-60
2022/06/19 05:29:30;;;;;;;;;;;;;;;28.63;39.54;93926.94;5068540;28;9632;-60
2022/06/19 05:32:07;;;;;;;;;;;;;;;28.65;39.80;93932.69;5055368;28;7005;-61
2022/06/19 05:34:42;;;;;;;;;;;;;;;28.62;39.63;93928.25;5054676;28;7052;-60
2022/06/19 05:37:08;;;;;;;;;;;;;;;28.64;38.73;93924.94;5057603;28;8990;-60
2022/06/19 05:39:34;;;;;;;;;;;;;;;28.63;38.65;93932.50;5070080;28;7463;-60
2022/06/19 05:42:03;;;;;;;;;;;;;;;28.63;38.88;93937.28;5045799;28;7067;-60
2022/06/19 05:44:38;;;;;;;;;;;;;;;28.60;38.46;93936.31;5052580;28;9056;-60
2022/06/19 05:47:04;;;;;;;;;;;;;;;28.60;39.04;93944.63;5053723;28;8787;-61
2022/06/19 05:49:34;;;;;;;;;;;;;;;28.61;39.43;93943.34;5062276;28;7206;-60
2022/06/19 05:52:18;;;;;;;;;;;;;;;28.62;38.67;93947.63;5054773;28;7243;-61
2022/06/19 05:54:46;;;;;;;;;;;;;;;28.64;38.55;93936.75;5047310;28;7066;-61
2022/06/19 05:57:14;;;;;;;;;;;;;;;28.63;38.26;93938.03;5069973;28;9099;-60
2022/06/19 05:59:42;;;;;;;;;;;;;;;28.66;37.95;93942.47;5055971;28;7170;-61
2022/06/19 06:02:44;;;;;;;;;;;;;;;28.67;37.81;93932.13;5050855;28;7228;-61
2022/06/19 06:05:19;;;;;;;;;;;;;;;28.65;37.90;93926.41;5007841;28;6997;-61
2022/06/19 06:07:45;;;;;;;;;;;;;;;28.66;38.85;93928.66;5010621;28;9201;-61
2022/06/19 06:10:12;;;;;;;;;;;;;;;28.65;39.85;93934.69;5009286;28;7252;-61
2022/06/19 06:12:37;;;;;;;;;;;;;;;28.64;39.41;93927.69;4993908;28;7314;-61
2022/06/19 06:15:05;;;;;;;;;;;;;;;28.66;39.37;93936.94;4984753;28;7057;-61
2022/06/19 06:17:39;;;;;;;;;;;;;;;28.69;39.52;93935.09;4998143;28;7240;-61
2022/06/19 06:20:07;;;;;;;;;;;;;;;28.70;39.49;93945.66;5003487;28;7245;-61
2022/06/19 06:22:33;;;;;;;;;;;;;;;28.70;39.66;93942.13;5005140;28;7702;-61
2022/06/19 06:25:06;;;;;;;;;;;;;;;28.68;39.16;93934.38;5002025;28;7114;-61
2022/06/19 06:27:34;;;;;;;;;;;;;;;28.71;39.00;93941.59;4991579;28;7241;-61
2022/06/19 06:30:11;;;;;;;;;;;;;;;28.74;39.30;93934.97;4977431;28;7136;-61
2022/06/19 06:32:39;;;;;;;;;;;;;;;28.77;39.04;93944.97;4979134;28;8753;-61
2022/06/19 06:35:06;;;;;;;;;;;;;;;28.76;38.78;93940.69;4997972;28;9075;-61
2022/06/19 06:37:46;;;;;;;;;;;;;;;28.79;38.93;93945.16;4994622;28;7878;-61
2022/06/19 06:40:19;;;;;;;;;;;;;;;28.81;39.16;93947.38;5067324;28;9069;-61
2022/06/19 06:42:55;;;;;;;;;;;;;;;28.82;39.14;93946.09;5055771;28;7265;-61
2022/06/19 06:45:21;;;;;;;;;;;;;;;28.82;38.75;93946.84;5056412;28;9341;-61
2022/06/19 06:47:49;;;;;;;;;;;;;;;28.84;39.31;93940.78;5062988;28;8814;-61
2022/06/19 06:50:18;;;;;;;;;;;;;;;28.84;39.47;93941.50;5036119;28;7326;-61
2022/06/19 06:52:44;;;;;;;;;;;;;;;28.82;39.02;93938.53;5050668;28;7188;-61
2022/06/19 06:55:43;;;;;;;;;;;;;;;28.83;38.66;93942.03;5056245;28;9092;-61
2022/06/19 06:58:23;;;;;;;;;;;;;;;28.80;39.23;93945.88;5049657;28;9402;-61
2022/06/19 07:01:19;;;;;;;;;;;;;;;28.81;39.25;93942.59;5055315;28;7117;-61
2022/06/19 07:04:17;;;;;;;;;;;;;;;28.82;39.16;93948.84;4977232;28;9049;-61
2022/06/19 07:06:45;;;;;;;;;;;;;;;28.78;39.24;93940.91;4976088;28;7225;-61
2022/06/19 07:09:20;;;;;;;;;;;;;;;28.78;39.18;93940.91;4966125;28;7231;-61
2022/06/19 07:12:06;;;;;;;;;;;;;;;28.81;39.92;93931.53;4972076;28;7058;-61
2022/06/19 07:14:34;;;;;;;;;;;;;;;28.80;40.06;93930.03;4982224;28;7087;-61
2022/06/19 07:17:01;;;;;;;;;;;;;;;28.80;39.70;93935.56;4969020;28;6856;-61
2022/06/19 07:19:28;;;;;;;;;;;;;;;28.84;39.51;93935.25;4983650;28;9467;-61
2022/06/19 07:22:04;;;;;;;;;;;;;;;28.83;39.68;93928.94;4966176;28;9125;-61
2022/06/19 07:24:31;;;;;;;;;;;;;;;28.83;39.99;93928.94;4972093;28;7235;-61
2022/06/19 07:27:04;;;;;;;;;;;;;;;28.84;39.66;93935.94;4971692;28;9209;-61
2022/06/19 07:30:01;;;;;;;;;;;;;;;28.86;39.91;93927.84;4971246;28;7097;-61
2022/06/19 07:32:28;;;;;;;;;;;;;;;28.86;39.82;93925.06;4878870;29;7372;-61
2022/06/19 07:35:04;;;;;;;;;;;;;;;28.86;39.81;93918.81;4881794;29;7262;-61
2022/06/19 07:37:37;;;;;;;;;;;;;;;28.84;39.64;93910.31;4886818;29;7067;-61
2022/06/19 07:40:03;;;;;;;;;;;;;;;28.87;39.88;93912.72;4879831;29;9128;-61
2022/06/19 07:42:38;;;;;;;;;;;;;;;28.86;39.52;93914.00;4920311;28;9255;-61
2022/06/19 07:45:04;;;;;;;;;;;;;;;28.85;39.80;93912.53;4943647;28;9050;-61
2022/06/19 07:50:17;;;;;;;;;;;;;;;28.87;40.27;93903.69;4944930;28;9455;-61
2022/06/19 07:52:53;;;;;;;;;;;;;;;28.85;40.27;93904.22;4961515;28;9093;-61
2022/06/19 07:55:30;;;;;;;;;;;;;;;28.86;39.95;93908.47;4956911;28;7197;-61
2022/06/19 07:57:58;;;;;;;;;;;;;;;28.85;39.94;93904.22;4940545;28;6996;-61
2022/06/19 08:00:37;;;;;;;;;;;;;;;28.87;39.82;93898.16;4966467;28;7052;-61
2022/06/19 08:03:10;;;;;;;;;;;;;;;28.86;39.89;93905.69;4947378;28;9205;-61
2022/06/19 08:06:04;;;;;;;;;;;;;;;28.87;39.72;93907.19;4962881;28;6985;-61
2022/06/19 08:08:32;;;;;;;;;;;;;;;28.85;39.97;93901.47;4992789;28;9475;-61
2022/06/19 08:11:11;;;;;;;;;;;;;;;28.85;40.07;93897.94;5063493;28;7182;-61
2022/06/19 08:13:40;;;;;;;;;;;;;;;28.87;39.87;93904.44;5040452;28;7011;-61
2022/06/19 08:16:28;;;;;;;;;;;;;;;28.87;40.11;93895.38;5048620;28;7642;-61
2022/06/19 08:19:09;;;;;;;;;;;;;;;28.88;41.40;93899.63;5047875;28;9081;-61
2022/06/19 08:21:46;;;;;;;;;;;;;;;28.88;40.73;93892.06;5064149;28;7482;-61
2022/06/19 08:24:14;;;;;;;;;;;;;;;28.89;40.11;93904.63;5065931;28;7230;-61
2022/06/19 08:26:43;;;;;;;;;;;;;;;28.90;40.63;93894.28;5047144;28;7640;-61
2022/06/19 08:29:18;;;;;;;;;;;;;;;28.90;42.02;93889.50;5037962;28;7190;-61
2022/06/19 08:31:48;;;;;;;;;;;;;;;28.95;41.60;93885.81;5055959;28;7532;-61
2022/06/19 08:34:14;;;;;;;;;;;;;;;28.95;40.59;93879.53;5055652;28;7061;-61
2022/06/19 08:36:42;;;;;;;;;;;;;;;28.95;41.04;93880.28;5052415;28;8711;-62
2022/06/19 08:39:14;;;;;;;;;;;;;;;28.97;41.02;93877.00;5052907;28;7270;-61
2022/06/19 08:42:32;;;;;;;;;;;;;;;28.97;41.32;93877.72;5052387;28;7346;-61
2022/06/19 08:45:18;;;;;;;;;;;;;;;28.99;42.69;93879.97;5063192;28;7496;-61
2022/06/19 08:48:09;;;;;;;;;;;;;;;29.00;42.55;93870.34;5049900;28;9411;-61
2022/06/19 08:51:03;;;;;;;;;;;;;;;28.98;42.22;93867.38;5047098;28;9650;-61
2022/06/19 08:54:01;;;;;;;;;;;;;;;29.00;42.21;93882.16;5050170;28;9018;-61
2022/06/19 08:57:00;;;;;;;;;;;;;;;29.00;42.50;93870.34;5038727;28;7267;-61
2022/06/19 08:59:41;;;;;;;;;;;;;;;29.01;41.86;93866.31;5055405;28;7238;-61
2022/06/19 09:02:40;;;;;;;;;;;;;;;29.01;42.03;93866.31;5069602;28;9058;-61
2022/06/19 09:05:47;;;;;;;;;;;;;;;29.01;42.38;93861.50;5050552;28;9203;-61
2022/06/19 09:08:39;;;;;;;;;;;;;;;29.01;42.05;93858.00;4991317;28;7034;-61
2022/06/19 09:12:03;;;;;;;;;;;;;;;29.02;42.15;93859.47;4976659;28;7087;-61
2022/06/19 09:14:51;;;;;;;;;;;;;;;29.02;42.33;93865.75;4953006;28;7266;-61
2022/06/19 09:17:44;;;;;;;;;;;;;;;29.03;41.62;93867.25;4961040;28;7205;-61
2022/06/19 09:20:42;;;;;;;;;;;;;;;29.03;41.70;93867.25;4931212;28;7646;-61
2022/06/19 09:23:22;;;;;;;;;;;;;;;29.03;41.98;93870.00;4941885;28;9476;-61
2022/06/19 09:25:55;;;;;;;;;;;;;;;29.04;42.13;93865.94;4935530;28;8410;-61
2022/06/19 09:29:05;;;;;;;;;;;;;;;29.05;41.90;93869.47;4935529;28;9041;-61
2022/06/19 09:31:35;;;;;;;;;;;;;;;29.07;42.09;93861.34;4933162;28;7189;-61
2022/06/19 09:34:39;;;;;;;;;;;;;;;29.07;42.16;93864.88;4942203;28;8770;-61
2022/06/19 09:37:48;;;;;;;;;;;;;;;29.08;41.64;93869.09;4951161;28;9377;-61
2022/06/19 09:40:29;;;;;;;;;;;;;;;29.08;41.57;93866.34;4943533;28;7338;-61
2022/06/19 09:43:20;;;;;;;;;;;;;;;29.09;42.19;93867.06;4971968;28;7074;-61
2022/06/19 09:46:05;;;;;;;;;;;;;;;29.08;42.11;93854.50;5022455;28;9043;-61
2022/06/19 09:48:48;;;;;;;;;;;;;;;29.10;41.43;93854.72;5069606;28;8759;-61
2022/06/19 09:51:36;;;;;;;;;;;;;;;29.08;41.82;93855.25;5066788;28;9731;-61
2022/06/19 09:54:18;;;;;;;;;;;;;;;29.10;41.79;93860.97;5053402;28;7280;-61
2022/06/19 09:56:55;;;;;;;;;;;;;;;29.09;41.83;93848.44;5049423;28;9739;-61
2022/06/19 09:59:42;;;;;;;;;;;;;;;29.10;41.65;93849.19;5042726;28;7245;-61
2022/06/19 10:02:24;;;;;;;;;;;;;;;29.12;41.29;93849.38;5050754;28;7158;-61
2022/06/19 10:05:37;;;;;;;;;;;;;;;29.14;41.55;93848.81;5052687;28;7226;-61
2022/06/19 10:08:18;;;;;;;;;;;;;;;29.15;41.17;93847.53;4950881;28;7371;-61
2022/06/19 10:10:56;;;;;;;;;;;;;;;29.15;40.55;93847.53;4966946;28;7192;-61
2022/06/19 10:13:56;;;;;;;;;;;;;;;29.16;40.63;93833.16;4961884;28;7009;-61
2022/06/19 10:16:52;;;;;;;;;;;;;;;29.15;40.02;93826.13;4965516;28;8160;-61
2022/06/19 10:19:23;;;;;;;;;;;;;;;29.19;39.71;93834.13;4950992;28;7189;-61
2022/06/19 10:22:14;;;;;;;;;;;;;;;29.20;39.19;93828.00;4957022;28;9131;-61
2022/06/19 10:25:24;;;;;;;;;;;;;;;29.24;39.74;93830.41;4958940;28;7534;-61
2022/06/19 10:28:36;;;;;;;;;;;;;;;29.28;40.01;93830.78;4920058;29;7431;-61
2022/06/19 10:31:19;;;;;;;;;;;;;;;29.32;39.79;93833.97;4920357;29;7287;-61
2022/06/19 10:34:13;;;;;;;;;;;;;;;29.37;39.85;93821.97;4903131;29;7770;-61
2022/06/19 10:37:32;;;;;;;;;;;;;;;29.39;40.20;93827.69;4911392;29;7284;-62
2022/06/19 10:40:16;;;;;;;;;;;;;;;29.38;40.19;93831.78;4889683;29;7078;-61
2022/06/19 10:43:10;;;;;;;;;;;;;;;29.37;40.37;93827.50;4888786;29;10076;-61
2022/06/19 10:45:44;;;;;;;;;;;;;;;29.36;39.98;93826.75;4915041;29;9205;-61
2022/06/19 10:48:24;;;;;;;;;;;;;;;29.35;39.52;93827.31;4899194;29;6979;-61
2022/06/19 10:51:13;;;;;;;;;;;;;;;29.36;41.02;93828.81;4909687;29;8353;-61
2022/06/19 10:53:50;;;;;;;;;;;;;;;29.39;40.47;93822.16;4905911;29;9004;-61
2022/06/19 10:56:47;;;;;;;;;;;;;;;29.43;40.40;93823.28;4906078;29;9177;-61
2022/06/19 10:59:13;;;;;;;;;;;;;;;29.46;40.37;93827.00;4899038;29;7256;-61
2022/06/19 11:04:57;;;;;;;;;;;;;;;29.43;40.55;93822.53;4944160;28;7689;-61
2022/06/19 11:07:33;;;;;;;;;;;;;;;29.41;40.47;93814.03;4976898;28;7201;-62
2022/06/19 11:10:17;;;;;;;;;;;;;;;29.44;40.90;93819.22;4959660;28;6981;-61
2022/06/19 11:13:00;;;;;;;;;;;;;;;29.46;40.67;93811.09;4950638;28;8069;-61
2022/06/19 11:16:01;;;;;;;;;;;;;;;29.50;40.62;93805.19;5009809;28;8031;-61
2022/06/19 11:18:46;;;;;;;;;;;;;;;29.52;40.02;93808.16;5052609;28;6991;-61
2022/06/19 11:21:42;;;;;;;;;;;;;;;29.52;40.58;93810.94;5052821;28;7331;-61
2022/06/19 11:24:33;;;;;;;;;;;;;;;29.53;39.79;93804.84;5065267;28;7944;-61
2022/06/19 11:27:34;;;;;;;;;;;;;;;29.53;39.67;93801.34;5064522;28;7249;-61
2022/06/19 11:30:11;;;;;;;;;;;;;;;29.53;39.87;93804.09;5061815;28;9047;-61
2022/06/19 11:32:50;;;;;;;;;;;;;;;29.53;40.01;93802.09;5048650;28;7034;-61
2022/06/19 11:35:16;;;;;;;;;;;;;;;29.53;40.45;93798.56;5046685;28;7499;-61
2022/06/19 11:37:55;;;;;;;;;;;;;;;29.50;40.62;93796.88;5062529;28;7023;-61
2022/06/19 11:40:35;;;;;;;;;;;;;;;29.53;40.98;93799.31;5050538;28;7896;-61
2022/06/19 11:43:03;;;;;;;;;;;;;;;29.53;41.29;93804.09;5061503;28;8029;-62
2022/06/19 11:45:36;;;;;;;;;;;;;;;29.55;40.70;93799.50;5038234;28;8984;-61
2022/06/19 11:48:07;;;;;;;;;;;;;;;29.54;40.96;93811.13;5062860;28;7542;-61
2022/06/19 11:50:33;;;;;;;;;;;;;;;29.53;41.47;93801.34;5050939;28;7283;-61
2022/06/19 11:53:17;;;;;;;;;;;;;;;29.55;40.68;93796.72;5054638;28;8671;-61
2022/06/19 11:55:49;;;;;;;;;;;;;;;29.56;40.83;93797.44;5063726;28;9199;-62
2022/06/19 11:58:29;;;;;;;;;;;;;;;29.53;40.56;93795.78;5046017;28;9036;-61
2022/06/19 12:01:11;;;;;;;;;;;;;;;29.55;40.26;93798.75;5056662;28;7283;-61
2022/06/19 12:03:58;;;;;;;;;;;;;;;29.57;40.98;93799.69;5046153;28;7342;-61
2022/06/19 12:06:44;;;;;;;;;;;;;;;29.59;41.64;93799.13;5053231;28;7054;-62
2022/06/19 12:09:32;;;;;;;;;;;;;;;29.62;41.31;93795.25;5052535;28;7366;-62
2022/06/19 12:12:21;;;;;;;;;;;;;;;29.62;41.47;93792.50;5066388;28;6855;-62
2022/06/19 12:14:51;;;;;;;;;;;;;;;29.64;41.46;93789.91;5061739;28;7276;-62
2022/06/19 12:17:43;;;;;;;;;;;;;;;29.66;41.17;93784.53;5067209;28;7497;-62
2022/06/19 12:20:09;;;;;;;;;;;;;;;29.66;41.33;93790.84;5041427;28;7520;-62
2022/06/19 12:22:41;;;;;;;;;;;;;;;29.68;41.63;93793.03;5047520;28;7719;-62
2022/06/19 12:25:15;;;;;;;;;;;;;;;29.69;41.00;93788.97;5036180;28;7540;-62
2022/06/19 12:28:05;;;;;;;;;;;;;;;29.68;40.36;93791.03;5062150;28;9369;-61
2022/06/19 12:30:39;;;;;;;;;;;;;;;29.77;39.76;93787.72;5064078;28;9608;-61
2022/06/19 12:33:15;;;;;;;;;;;;;;;29.80;40.09;93775.53;5057345;28;7329;-61
2022/06/19 12:35:46;;;;;;;;;;;;;;;29.84;40.15;93775.16;5057764;28;7308;-62
2022/06/19 12:38:22;;;;;;;;;;;;;;;29.86;39.53;93777.38;5047731;28;7111;-62
2022/06/19 12:41:06;;;;;;;;;;;;;;;29.85;40.32;93779.41;5047682;28;7279;-61
2022/06/19 12:43:55;;;;;;;;;;;;;;;29.84;40.37;93777.91;5047794;28;9150;-61
2022/06/19 12:46:49;;;;;;;;;;;;;;;29.84;40.06;93772.38;5048102;28;7252;-61
2022/06/19 12:49:17;;;;;;;;;;;;;;;29.83;40.68;93779.22;5045295;28;9695;-61
2022/06/19 12:51:53;;;;;;;;;;;;;;;29.84;40.16;93761.28;5048092;28;7370;-62
2022/06/19 12:54:19;;;;;;;;;;;;;;;29.84;40.35;93761.28;5041169;28;7292;-62
2022/06/19 12:56:54;;;;;;;;;;;;;;;29.82;40.16;93763.88;5051432;28;7250;-61
2022/06/19 12:59:38;;;;;;;;;;;;;;;29.84;40.09;93758.50;5051102;28;8743;-62
2022/06/19 13:02:38;;;;;;;;;;;;;;;29.86;40.82;93757.97;5067978;28;7508;-62
2022/06/19 13:05:25;;;;;;;;;;;;;;;29.86;40.75;93747.63;5048614;28;6996;-61
2022/06/19 13:08:12;;;;;;;;;;;;;;;29.88;39.99;93742.28;5062073;28;9594;-61
2022/06/19 13:11:25;;;;;;;;;;;;;;;29.88;39.91;93745.03;5066401;28;9280;-60
2022/06/19 13:14:36;;;;;;;;;;;;;;;29.92;40.57;93744.66;4948936;29;7067;-62
2022/06/19 13:17:55;;;;;;;;;;;;;;;29.95;39.66;93746.34;4871072;29;7275;-61
2022/06/19 13:20:50;;;;;;;;;;;;;;;29.96;40.26;93748.53;4835941;29;7274;-61
2022/06/19 13:23:59;;;;;;;;;;;;;;;29.95;39.58;93749.09;4831172;29;7247;-61
2022/06/19 13:29:49;;;;;;;;;;;;;;;29.96;40.85;93745.03;4831438;29;6993;-60
2022/06/19 13:32:31;;;;;;;;;;;;;;;29.95;40.10;93744.28;4824743;29;9094;-60
2022/06/19 13:35:44;;;;;;;;;;;;;;;29.95;40.21;93743.56;4817286;29;9053;-60
2022/06/19 13:38:48;;;;;;;;;;;;;;;29.92;40.26;93734.31;4839032;29;7267;-60
2022/06/19 13:42:08;;;;;;;;;;;;;;;29.97;39.49;93735.41;4835513;29;7260;-60
2022/06/19 13:44:42;;;;;;;;;;;;;;;30.01;39.47;93727.47;4796846;29;7067;-60
2022/06/19 13:47:20;;;;;;;;;;;;;;;30.00;40.18;93737.81;4800119;29;9070;-60
2022/06/19 13:50:02;;;;;;;;;;;;;;;30.02;40.22;93726.91;4800665;29;9318;-60
2022/06/19 13:52:57;;;;;;;;;;;;;;;30.05;39.59;93725.06;4882139;29;7522;-60
2022/06/19 13:55:34;;;;;;;;;;;;;;;30.06;39.53;93721.00;4975269;28;7447;-60
2022/06/19 13:58:19;;;;;;;;;;;;;;;30.05;39.14;93720.25;4986391;28;9105;-60
2022/06/19 14:01:09;;;;;;;;;;;;;;;30.06;40.15;93715.44;4999430;28;8755;-60
2022/06/19 14:07:20;;;;;;;;;;;;;;;30.08;40.02;93719.13;5004134;28;7570;-60
2022/06/19 14:09:56;;;;;;;;;;;;;;;30.10;39.70;93710.97;5000071;28;9218;-60